createdAt,value
2023-04-27T00:02:13.629Z,66.95
2023-04-27T00:04:43.356Z,67.01
2023-04-27T00:07:11.848Z,67.11
2023-04-27T00:09:39.862Z,66.85
2023-04-27T00:12:07.822Z,66.69
2023-04-27T00:14:36.125Z,66.67
2023-04-27T00:17:04.064Z,66.54
2023-04-27T00:19:32.488Z,66.19
2023-04-27T00:22:00.646Z,66.19
2023-04-27T00:24:28.801Z,66.53
2023-04-27T00:26:57.820Z,66.78
2023-04-27T00:29:26.141Z,66.51
2023-04-27T00:31:54.173Z,66.73
2023-04-27T00:34:23.697Z,66.81
2023-04-27T00:36:52.074Z,66.81
2023-04-27T00:39:21.857Z,66.88
2023-04-27T00:41:49.885Z,66.93
2023-04-27T00:44:28.009Z,66.95
2023-04-27T00:46:59.107Z,67.06
2023-04-27T00:49:27.779Z,67.39
2023-04-27T00:51:56.386Z,67.13
2023-04-27T00:54:24.963Z,67.25
2023-04-27T00:56:53.325Z,67.28
2023-04-27T00:59:21.941Z,67.31
2023-04-27T01:01:50.675Z,67.17
2023-04-27T01:04:20.604Z,67.38
2023-04-27T01:06:48.819Z,67.56
2023-04-27T01:09:19.697Z,67.46
2023-04-27T01:11:51.019Z,67.52
2023-04-27T01:14:21.058Z,67.29
2023-04-27T01:16:50.323Z,67.29
2023-04-27T01:19:21.757Z,67.37
2023-04-27T01:21:51.425Z,67.64
2023-04-27T01:24:21.700Z,67.84
2023-04-27T01:26:52.122Z,67.67
2023-04-27T01:29:22.683Z,67.65
2023-04-27T01:31:50.847Z,67.79
2023-04-27T01:34:18.795Z,68.07
2023-04-27T01:36:48.869Z,68.25
2023-04-27T01:39:16.931Z,68.67
2023-04-27T01:41:44.908Z,68.91
2023-04-27T01:44:15.886Z,69.01
2023-04-27T01:46:43.868Z,69.33
2023-04-27T01:49:12.115Z,69.34
2023-04-27T01:51:40.619Z,69.30
2023-04-27T01:54:13.972Z,69.48
2023-04-27T01:56:42.571Z,69.65
2023-04-27T01:59:10.488Z,70.25
2023-04-27T02:01:38.364Z,70.22
2023-04-27T02:04:06.860Z,70.28
2023-04-27T02:06:37.967Z,69.82
2023-04-27T02:09:11.850Z,69.89
2023-04-27T02:11:43.164Z,70.33
2023-04-27T02:14:11.155Z,70.88
2023-04-27T02:16:42.984Z,70.70
2023-04-27T02:19:13.046Z,70.35
2023-04-27T02:21:41.161Z,70.27
2023-04-27T02:24:10.156Z,70.44
2023-04-27T02:26:38.115Z,70.67
2023-04-27T02:29:08.630Z,70.54
2023-04-27T02:31:40.509Z,70.78
2023-04-27T02:34:08.532Z,70.82
2023-04-27T02:36:38.236Z,70.51
2023-04-27T02:39:07.266Z,70.47
2023-04-27T02:41:35.407Z,70.58
2023-04-27T02:44:03.356Z,70.54
2023-04-27T02:46:32.465Z,70.53
2023-04-27T02:49:00.390Z,70.51
2023-04-27T02:51:28.411Z,70.68
2023-04-27T02:53:56.800Z,70.86
2023-04-27T02:56:24.745Z,70.93
2023-04-27T02:58:53.357Z,71.02
2023-04-27T03:01:21.382Z,71.23
2023-04-27T03:03:49.643Z,71.02
2023-04-27T03:06:17.677Z,71.01
2023-04-27T03:08:45.567Z,70.72
2023-04-27T03:11:13.561Z,70.99
2023-04-27T03:13:42.245Z,70.90
2023-04-27T03:16:11.556Z,70.79
2023-04-27T03:18:41.069Z,70.81
2023-04-27T03:21:10.830Z,70.98
2023-04-27T03:23:39.729Z,71.19
2023-04-27T03:26:12.390Z,71.17
2023-04-27T03:28:43.516Z,71.20
2023-04-27T03:31:14.064Z,71.11
2023-04-27T03:33:42.403Z,71.14
2023-04-27T03:36:13.024Z,71.35
2023-04-27T03:38:42.913Z,71.48
2023-04-27T03:41:11.744Z,71.64
2023-04-27T03:43:39.663Z,71.28
2023-04-27T03:46:07.750Z,70.60
2023-04-27T03:48:36.553Z,70.56
2023-04-27T03:51:04.733Z,70.26
2023-04-27T03:53:33.495Z,70.67
2023-04-27T03:56:02.335Z,70.54
2023-04-27T03:58:30.196Z,70.45
2023-04-27T04:01:27.451Z,70.22
2023-04-27T04:03:55.446Z,69.77
2023-04-27T04:06:23.402Z,69.49
2023-04-27T04:08:51.469Z,68.85
2023-04-27T04:11:19.517Z,68.07
2023-04-27T04:13:47.982Z,67.79
2023-04-27T04:16:16.096Z,67.69
2023-04-27T04:18:44.287Z,67.34
2023-04-27T04:21:12.372Z,67.37
2023-04-27T04:23:42.928Z,67.76
2023-04-27T04:26:11.563Z,67.65
2023-04-27T04:28:39.502Z,67.61
2023-04-27T04:31:09.933Z,67.56
2023-04-27T04:33:37.998Z,67.71
2023-04-27T04:36:06.873Z,67.70
2023-04-27T04:38:35.510Z,67.79
2023-04-27T04:41:03.713Z,67.16
2023-04-27T04:43:33.831Z,66.91
2023-04-27T04:46:04.532Z,67.26
2023-04-27T04:48:32.561Z,66.92
2023-04-27T04:51:00.567Z,66.73
2023-04-27T04:53:28.490Z,65.69
2023-04-27T04:55:56.880Z,65.07
2023-04-27T04:58:24.783Z,64.57
2023-04-27T05:00:52.678Z,64.35
2023-04-27T05:03:21.531Z,63.80
2023-04-27T05:05:49.752Z,63.91
2023-04-27T05:08:17.636Z,63.41
2023-04-27T05:10:55.085Z,62.49
2023-04-27T05:13:24.864Z,62.26
2023-04-27T05:15:53.099Z,62.71
2023-04-27T05:18:21.220Z,62.25
2023-04-27T05:20:49.120Z,61.10
2023-04-27T05:23:17.131Z,61.26
2023-04-27T05:25:45.167Z,60.95
2023-04-27T05:28:13.211Z,59.44
2023-04-27T05:30:41.149Z,59.37
2023-04-27T05:33:09.146Z,59.01
2023-04-27T05:35:37.171Z,59.18
2023-04-27T05:38:05.001Z,58.43
2023-04-27T05:40:32.785Z,58.08
2023-04-27T05:43:03.479Z,58.39
2023-04-27T05:45:31.458Z,58.27
2023-04-27T05:47:59.477Z,58.01
2023-04-27T05:50:27.431Z,57.71
2023-04-27T05:52:55.288Z,57.70
2023-04-27T05:55:23.276Z,56.57
2023-04-27T05:58:00.770Z,56.82
2023-04-27T06:00:36.596Z,56.24
2023-04-27T06:03:04.668Z,55.38
2023-04-27T06:05:34.465Z,55.20
2023-04-27T06:08:02.760Z,55.13
2023-04-27T06:10:30.879Z,55.68
2023-04-27T06:12:58.833Z,55.85
2023-04-27T06:15:26.767Z,56.45
2023-04-27T06:17:54.730Z,56.64
2023-04-27T06:20:22.581Z,55.59
2023-04-27T06:22:50.691Z,55.82
2023-04-27T06:25:18.744Z,56.21
2023-04-27T06:27:47.521Z,56.00
2023-04-27T06:30:15.482Z,55.48
2023-04-27T06:32:43.520Z,55.28
2023-04-27T06:35:11.679Z,54.20
2023-04-27T06:37:39.675Z,54.68
2023-04-27T06:40:08.208Z,54.35
2023-04-27T06:42:36.368Z,53.96
2023-04-27T06:45:05.687Z,53.31
2023-04-27T06:47:33.719Z,53.80
2023-04-27T06:50:01.718Z,53.86
2023-04-27T06:52:33.191Z,54.02
2023-04-27T06:55:01.109Z,53.61
2023-04-27T06:57:28.975Z,53.82
2023-04-27T06:59:56.907Z,54.73
2023-04-27T07:02:25.690Z,54.33
2023-04-27T07:04:53.990Z,55.28
2023-04-27T07:07:22.066Z,55.83
2023-04-27T07:09:49.996Z,55.64
2023-04-27T07:12:17.902Z,54.77
2023-04-27T07:14:46.370Z,52.23
2023-04-27T07:17:14.268Z,52.24
2023-04-27T07:19:42.206Z,51.52
2023-04-27T07:22:12.497Z,51.17
2023-04-27T07:24:40.407Z,50.57
2023-04-27T07:27:08.433Z,49.94
2023-04-27T07:29:37.949Z,48.75
2023-04-27T07:32:07.879Z,48.95
2023-04-27T07:34:48.966Z,48.36
2023-04-27T07:37:20.511Z,47.37
2023-04-27T07:39:50.455Z,47.74
2023-04-27T07:42:19.373Z,48.10
2023-04-27T07:44:47.467Z,48.76
2023-04-27T07:47:15.851Z,49.33
2023-04-27T07:49:46.420Z,48.18
2023-04-27T07:52:15.012Z,47.15
2023-04-27T07:54:43.226Z,47.47
2023-04-27T07:57:11.911Z,47.59
2023-04-27T07:59:40.201Z,45.74
2023-04-27T08:02:19.150Z,45.16
2023-04-27T08:04:50.063Z,44.83
2023-04-27T08:07:18.983Z,43.60
2023-04-27T08:09:50.885Z,43.23
2023-04-27T08:12:19.498Z,41.89
2023-04-27T08:14:47.470Z,41.42
2023-04-27T08:17:15.607Z,41.82
2023-04-27T08:19:43.637Z,41.74
2023-04-27T08:22:11.563Z,41.57
2023-04-27T08:24:39.523Z,41.03
2023-04-27T08:27:07.718Z,40.60
2023-04-27T08:29:36.152Z,40.33
2023-04-27T08:32:05.060Z,40.15
2023-04-27T08:34:33.080Z,39.41
2023-04-27T08:37:02.348Z,39.62
2023-04-27T08:39:30.382Z,39.91
2023-04-27T08:41:58.463Z,38.13
2023-04-27T08:44:26.775Z,37.88
2023-04-27T08:46:54.741Z,38.54
2023-04-27T08:49:22.811Z,39.52
2023-04-27T08:51:50.926Z,39.11
2023-04-27T08:54:19.450Z,39.18
2023-04-27T08:56:47.314Z,38.69
2023-04-27T08:59:17.267Z,38.29
2023-04-27T09:01:49.578Z,38.30
2023-04-27T09:04:18.691Z,37.82
2023-04-27T09:06:46.906Z,38.44
2023-04-27T09:09:25.392Z,38.05
2023-04-27T09:11:53.418Z,38.43
2023-04-27T09:14:23.247Z,38.01
2023-04-27T09:16:59.978Z,37.70
2023-04-27T09:19:30.081Z,37.08
2023-04-27T09:22:11.193Z,37.57
2023-04-27T09:24:39.271Z,37.13
2023-04-27T09:27:07.477Z,37.07
2023-04-27T09:29:37.761Z,37.19
2023-04-27T09:32:17.122Z,37.01
2023-04-27T09:34:45.742Z,36.92
2023-04-27T09:37:14.653Z,37.00
2023-04-27T09:39:43.002Z,36.88
2023-04-27T09:42:12.667Z,37.32
2023-04-27T09:44:40.709Z,37.67
2023-04-27T09:47:10.681Z,38.78
2023-04-27T09:49:38.963Z,38.15
2023-04-27T09:52:07.052Z,36.85
2023-04-27T09:54:36.786Z,36.65
2023-04-27T09:57:26.619Z,37.69
2023-04-27T10:00:08.026Z,37.85
2023-04-27T10:03:07.750Z,36.72
2023-04-27T10:05:51.290Z,37.16
2023-04-27T10:08:20.776Z,36.43
2023-04-27T10:10:49.305Z,35.31
2023-04-27T10:13:25.260Z,34.81
2023-04-27T10:15:53.775Z,35.36
2023-04-27T10:18:33.552Z,35.19
2023-04-27T10:21:11.205Z,35.15
2023-04-27T10:23:48.352Z,35.01
2023-04-27T10:26:28.173Z,35.54
2023-04-27T10:29:12.125Z,35.11
2023-04-27T10:31:45.050Z,35.08
2023-04-27T10:34:20.567Z,35.68
2023-04-27T10:36:49.469Z,35.42
2023-04-27T10:39:36.188Z,35.34
2023-04-27T10:42:14.329Z,34.54
2023-04-27T10:44:42.327Z,34.00
2023-04-27T10:47:15.905Z,34.52
2023-04-27T10:49:43.950Z,34.38
2023-04-27T10:52:11.797Z,34.02
2023-04-27T10:54:40.000Z,34.51
2023-04-27T10:57:10.060Z,35.37
2023-04-27T10:59:50.060Z,35.25
2023-04-27T11:02:26.413Z,35.28
2023-04-27T11:04:56.571Z,34.63
2023-04-27T11:07:29.215Z,34.26
2023-04-27T11:09:57.175Z,34.87
2023-04-27T11:12:25.104Z,34.73
2023-04-27T11:14:59.106Z,34.64
2023-04-27T11:17:30.910Z,34.72
2023-04-27T11:19:59.127Z,35.21
2023-04-27T11:22:27.553Z,35.42
2023-04-27T11:24:56.491Z,34.78
2023-04-27T11:27:25.425Z,34.09
2023-04-27T11:29:53.335Z,33.21
2023-04-27T11:32:23.016Z,33.85
2023-04-27T11:34:56.618Z,33.54
2023-04-27T11:37:27.726Z,33.98
2023-04-27T11:40:00.028Z,34.81
2023-04-27T11:42:29.250Z,35.22
2023-04-27T11:44:59.967Z,35.18
2023-04-27T11:47:30.559Z,34.45
2023-04-27T11:50:04.938Z,34.21
2023-04-27T11:52:37.331Z,34.30
2023-04-27T11:55:06.178Z,34.01
2023-04-27T11:57:38.448Z,34.27
2023-04-27T12:00:14.705Z,33.65
2023-04-27T12:02:44.503Z,33.42
2023-04-27T12:05:13.682Z,34.01
2023-04-27T12:07:43.321Z,34.20
2023-04-27T12:10:11.917Z,33.88
2023-04-27T12:12:40.157Z,34.14
2023-04-27T12:15:09.197Z,33.64
2023-04-27T12:17:38.322Z,33.26
2023-04-27T12:20:06.806Z,33.15
2023-04-27T12:22:34.584Z,33.65
2023-04-27T12:25:02.680Z,33.27
2023-04-27T12:27:30.893Z,33.13
2023-04-27T12:29:59.718Z,33.56
2023-04-27T12:32:28.133Z,32.57
2023-04-27T12:34:56.362Z,32.75
2023-04-27T12:37:26.662Z,32.31
2023-04-27T12:39:55.343Z,32.17
2023-04-27T12:42:24.442Z,31.85
2023-04-27T12:44:53.710Z,31.72
2023-04-27T12:47:43.115Z,32.12
2023-04-27T12:50:10.818Z,32.48
2023-04-27T12:52:38.939Z,32.98
2023-04-27T12:55:15.245Z,32.46
2023-04-27T12:57:49.645Z,32.76
2023-04-27T13:00:17.842Z,32.93
2023-04-27T13:02:46.453Z,33.42
2023-04-27T13:05:14.801Z,33.53
2023-04-27T13:07:42.898Z,33.28
2023-04-27T13:10:12.177Z,33.61
2023-04-27T13:12:40.895Z,33.48
2023-04-27T13:15:09.676Z,32.96
2023-04-27T13:17:37.945Z,33.64
2023-04-27T13:20:07.344Z,33.52
2023-04-27T13:22:35.555Z,33.46
2023-04-27T13:25:03.655Z,32.76
2023-04-27T13:27:31.532Z,33.27
2023-04-27T13:29:59.406Z,32.81
2023-04-27T13:32:27.570Z,33.06
2023-04-27T13:34:55.748Z,33.08
2023-04-27T13:37:23.669Z,32.94
2023-04-27T13:39:51.829Z,32.26
2023-04-27T13:42:19.850Z,32.27
2023-04-27T13:44:47.743Z,31.66
2023-04-27T13:47:15.694Z,31.00
2023-04-27T13:49:43.627Z,31.56
2023-04-27T13:52:11.559Z,31.82
2023-04-27T13:54:39.652Z,31.89
2023-04-27T13:57:07.480Z,32.72
2023-04-27T13:59:35.341Z,32.43
2023-04-27T14:02:03.458Z,32.21
2023-04-27T14:04:32.654Z,32.39
2023-04-27T14:07:00.748Z,32.34
2023-04-27T14:09:28.814Z,32.52
2023-04-27T14:11:57.825Z,32.65
2023-04-27T14:14:27.470Z,32.51
2023-04-27T14:16:57.358Z,33.07
2023-04-27T14:19:31.554Z,33.77
2023-04-27T14:22:04.590Z,33.87
2023-04-27T14:24:32.756Z,34.21
2023-04-27T14:27:03.095Z,34.32
2023-04-27T14:29:31.264Z,33.94
2023-04-27T14:32:10.235Z,34.40
2023-04-27T14:34:40.940Z,34.39
2023-04-27T14:37:09.527Z,34.58
2023-04-27T14:39:38.069Z,34.39
2023-04-27T14:42:05.941Z,36.09
2023-04-27T14:44:36.298Z,36.33
2023-04-27T14:47:04.249Z,37.31
2023-04-27T14:49:32.283Z,36.18
2023-04-27T14:52:04.077Z,36.15
2023-04-27T14:54:32.513Z,35.58
2023-04-27T14:57:01.205Z,36.13
2023-04-27T14:59:29.428Z,36.21
2023-04-27T15:01:57.725Z,35.53
2023-04-27T15:04:25.935Z,35.90
2023-04-27T15:06:54.106Z,35.86
2023-04-27T15:09:21.994Z,35.62
2023-04-27T15:11:49.984Z,34.85
2023-04-27T15:14:17.995Z,34.54
2023-04-27T15:16:45.908Z,34.96
2023-04-27T15:19:14.068Z,35.51
2023-04-27T15:21:42.202Z,35.92
2023-04-27T15:24:10.265Z,36.02
2023-04-27T15:26:38.048Z,36.24
2023-04-27T15:29:05.971Z,36.23
2023-04-27T15:31:34.141Z,35.67
2023-04-27T15:34:02.331Z,35.61
2023-04-27T15:36:30.412Z,36.20
2023-04-27T15:38:58.300Z,36.57
2023-04-27T15:41:26.320Z,36.46
2023-04-27T15:43:54.439Z,36.42
2023-04-27T15:46:22.533Z,36.42
2023-04-27T15:48:50.518Z,36.99
2023-04-27T15:51:18.518Z,37.26
2023-04-27T15:53:46.462Z,37.20
2023-04-27T15:56:15.873Z,36.93
2023-04-27T15:58:43.906Z,37.01
2023-04-27T16:01:12.024Z,36.77
2023-04-27T16:03:40.293Z,36.27
2023-04-27T16:06:08.522Z,36.39
2023-04-27T16:08:36.479Z,36.59
2023-04-27T16:11:04.615Z,36.86
2023-04-27T16:13:32.767Z,36.51
2023-04-27T16:16:01.205Z,36.44
2023-04-27T16:18:29.157Z,36.79
2023-04-27T16:20:57.127Z,37.05
2023-04-27T16:23:25.107Z,36.94
2023-04-27T16:25:53.033Z,37.16
2023-04-27T16:28:20.970Z,37.57
2023-04-27T16:30:49.459Z,38.01
2023-04-27T16:33:19.365Z,38.50
2023-04-27T16:35:47.709Z,38.39
2023-04-27T16:38:15.927Z,38.35
2023-04-27T16:40:47.229Z,38.68
2023-04-27T16:43:15.349Z,39.13
2023-04-27T16:45:43.370Z,39.36
2023-04-27T16:48:12.434Z,39.63
2023-04-27T16:50:41.101Z,39.70
2023-04-27T16:53:13.716Z,39.64
2023-04-27T16:55:41.866Z,39.90
2023-04-27T16:58:09.766Z,40.28
2023-04-27T17:00:39.615Z,40.73
2023-04-27T17:03:07.701Z,41.03
2023-04-27T17:05:36.084Z,41.60
2023-04-27T17:08:05.510Z,42.11
2023-04-27T17:10:35.686Z,42.43
2023-04-27T17:13:05.059Z,42.43
2023-04-27T17:15:33.185Z,42.58
2023-04-27T17:18:05.082Z,42.67
2023-04-27T17:20:33.229Z,42.92
2023-04-27T17:23:01.317Z,42.97
2023-04-27T17:25:29.253Z,43.34
2023-04-27T17:27:58.086Z,43.66
2023-04-27T17:30:27.427Z,43.73
2023-04-27T17:32:55.460Z,43.84
2023-04-27T17:35:23.614Z,44.30
2023-04-27T17:37:52.429Z,44.52
2023-04-27T17:40:21.217Z,44.86
2023-04-27T17:42:49.748Z,44.83
2023-04-27T17:45:17.651Z,44.99
2023-04-27T17:47:46.262Z,44.97
2023-04-27T17:50:14.873Z,45.07
2023-04-27T17:52:43.291Z,45.28
2023-04-27T17:55:11.198Z,45.64
2023-04-27T17:57:40.837Z,46.04
2023-04-27T18:00:10.430Z,46.16
2023-04-27T18:02:39.487Z,46.81
2023-04-27T18:05:07.901Z,46.88
2023-04-27T18:07:39.278Z,46.82
2023-04-27T18:10:08.324Z,47.06
2023-04-27T18:12:36.725Z,47.67
2023-04-27T18:15:06.919Z,48.20
2023-04-27T18:17:36.785Z,48.66
2023-04-27T18:20:09.503Z,49.18
2023-04-27T18:22:40.182Z,49.73
2023-04-27T18:25:11.427Z,49.95
2023-04-27T18:27:39.405Z,50.35
2023-04-27T18:30:08.651Z,50.62
2023-04-27T18:32:37.891Z,50.78
2023-04-27T18:35:06.457Z,52.16
2023-04-27T18:37:34.672Z,51.82
2023-04-27T18:40:05.244Z,52.09
2023-04-27T18:42:35.388Z,52.21
2023-04-27T18:45:03.365Z,52.31
2023-04-27T18:47:31.466Z,53.73
2023-04-27T18:49:59.441Z,54.01
2023-04-27T18:52:27.399Z,53.53
2023-04-27T18:54:57.638Z,53.91
2023-04-27T18:57:26.943Z,54.39
2023-04-27T18:59:54.980Z,54.44
2023-04-27T19:02:25.178Z,54.70
2023-04-27T19:05:07.570Z,55.07
2023-04-27T19:07:40.985Z,55.86
2023-04-27T19:10:09.702Z,58.29
2023-04-27T19:12:37.904Z,59.53
2023-04-27T19:15:06.371Z,59.61
2023-04-27T19:17:35.115Z,59.26
2023-04-27T19:20:03.882Z,59.57
2023-04-27T19:22:34.326Z,60.37
2023-04-27T19:25:06.346Z,62.33
2023-04-27T19:27:34.420Z,62.22
2023-04-27T19:30:04.299Z,63.54
2023-04-27T19:32:33.952Z,64.38
2023-04-27T19:35:02.700Z,62.46
2023-04-27T19:37:30.578Z,61.79
2023-04-27T19:39:58.587Z,63.22
2023-04-27T19:42:27.199Z,63.03
2023-04-27T19:44:55.897Z,63.13
2023-04-27T19:47:23.968Z,63.15
2023-04-27T19:49:52.222Z,63.49
2023-04-27T19:52:20.425Z,64.43
2023-04-27T19:54:54.478Z,63.70
2023-04-27T19:57:22.461Z,64.70
2023-04-27T19:59:50.604Z,65.19
2023-04-27T20:02:19.107Z,64.71
2023-04-27T20:04:47.792Z,64.48
2023-04-27T20:07:16.271Z,64.50
2023-04-27T20:09:48.955Z,65.70
2023-04-27T20:12:40.056Z,66.23
2023-04-27T20:15:05.326Z,66.85
2023-04-27T20:17:33.399Z,66.21
2023-04-27T20:20:02.299Z,67.09
2023-04-27T20:22:31.234Z,67.59
2023-04-27T20:25:01.108Z,68.53
2023-04-27T20:27:29.595Z,68.62
2023-04-27T20:29:57.646Z,69.96
2023-04-27T20:32:25.561Z,70.21
2023-04-27T20:34:55.172Z,70.32
2023-04-27T20:37:24.875Z,71.14
2023-04-27T20:39:55.232Z,70.63
2023-04-27T20:42:25.429Z,70.15
2023-04-27T20:44:57.367Z,70.77
2023-04-27T20:47:26.859Z,71.19
2023-04-27T20:49:57.081Z,71.38
2023-04-27T20:52:30.664Z,71.26
2023-04-27T20:55:05.558Z,71.54
2023-04-27T20:57:33.691Z,72.38
2023-04-27T21:00:01.918Z,72.43
2023-04-27T21:02:29.860Z,72.63
2023-04-27T21:05:07.283Z,73.69
2023-04-27T21:07:35.466Z,74.10
2023-04-27T21:10:06.878Z,74.85
2023-04-27T21:12:34.864Z,74.63
2023-04-27T21:15:03.715Z,74.11
2023-04-27T21:17:31.670Z,74.99
2023-04-27T21:20:02.695Z,75.90
2023-04-27T21:22:34.073Z,75.49
2023-04-27T21:25:02.855Z,75.11
2023-04-27T21:27:31.461Z,75.30
2023-04-27T21:30:01.567Z,76.31
2023-04-27T21:32:32.077Z,76.30
2023-04-27T21:35:02.207Z,77.03
2023-04-27T21:37:33.372Z,76.07
2023-04-27T21:40:03.498Z,76.47
2023-04-27T21:42:32.108Z,76.94
2023-04-27T21:45:00.793Z,77.21
2023-04-27T21:47:28.787Z,78.00
2023-04-27T21:49:56.855Z,78.42
2023-04-27T21:52:24.789Z,78.65
2023-04-27T21:54:52.707Z,79.06
2023-04-27T21:57:20.729Z,80.37
2023-04-27T21:59:48.601Z,80.83
2023-04-27T22:02:16.585Z,81.28
2023-04-27T22:04:45.340Z,81.82
2023-04-27T22:07:14.312Z,82.15
2023-04-27T22:09:42.275Z,82.35
2023-04-27T22:12:10.475Z,81.91
2023-04-27T22:14:38.325Z,81.71
2023-04-27T22:17:07.641Z,81.43
2023-04-27T22:19:36.110Z,81.22
2023-04-27T22:22:04.135Z,81.67
2023-04-27T22:24:32.039Z,84.23
2023-04-27T22:27:00.501Z,83.15
2023-04-27T22:29:28.486Z,82.23
2023-04-27T22:31:56.462Z,81.85
2023-04-27T22:34:24.520Z,82.06
2023-04-27T22:36:53.408Z,82.31
2023-04-27T22:39:21.461Z,82.67
2023-04-27T22:41:49.457Z,82.58
2023-04-27T22:44:17.663Z,82.74
2023-04-27T22:46:46.233Z,82.36
2023-04-27T22:49:15.177Z,83.42
2023-04-27T22:51:43.814Z,83.95
2023-04-27T22:54:11.664Z,82.72
2023-04-27T22:56:39.627Z,82.73
2023-04-27T22:59:07.504Z,82.88
2023-04-27T23:01:35.723Z,82.35
2023-04-27T23:04:03.959Z,82.58
2023-04-27T23:06:32.010Z,81.92
2023-04-27T23:08:59.836Z,81.89
2023-04-27T23:11:27.880Z,81.27
2023-04-27T23:13:57.567Z,80.77
2023-04-27T23:16:25.953Z,80.25
2023-04-27T23:18:54.070Z,79.96
2023-04-27T23:21:21.969Z,79.50
2023-04-27T23:23:49.870Z,79.46
2023-04-27T23:26:17.944Z,79.35
2023-04-27T23:28:46.126Z,79.04
2023-04-27T23:31:14.079Z,78.99
2023-04-27T23:33:41.976Z,78.93
2023-04-27T23:36:10.030Z,78.78
2023-04-27T23:38:37.885Z,79.11
2023-04-27T23:41:05.878Z,79.37
2023-04-27T23:43:34.096Z,79.66
2023-04-27T23:46:02.579Z,79.89
2023-04-27T23:48:30.520Z,80.19
2023-04-27T23:51:02.981Z,80.35
2023-04-27T23:53:31.478Z,80.36
2023-04-27T23:55:59.358Z,80.50
2023-04-27T23:58:27.388Z,80.59
